createdAt,value
2023-01-03T00:02:15.556Z,12.80
2023-01-03T00:04:48.944Z,12.80
2023-01-03T00:07:33.592Z,12.80
2023-01-03T00:10:06.280Z,12.80
2023-01-03T00:12:33.234Z,12.80
2023-01-03T00:15:01.100Z,12.80
2023-01-03T00:17:31.468Z,12.80
2023-01-03T00:19:58.253Z,12.80
2023-01-03T00:22:25.476Z,12.80
2023-01-03T00:24:53.298Z,12.80
2023-01-03T00:27:20.164Z,12.80
2023-01-03T00:29:46.912Z,12.80
2023-01-03T00:32:13.816Z,12.80
2023-01-03T00:34:44.212Z,12.80
2023-01-03T00:37:11.000Z,12.70
2023-01-03T00:39:37.792Z,12.70
2023-01-03T00:42:04.745Z,12.70
2023-01-03T00:44:31.982Z,12.70
2023-01-03T00:46:59.447Z,12.70
2023-01-03T00:49:26.583Z,12.70
2023-01-03T00:51:56.371Z,12.70
2023-01-03T00:54:23.737Z,12.70
2023-01-03T00:56:51.693Z,12.70
2023-01-03T00:59:20.087Z,12.60
2023-01-03T01:01:55.974Z,12.60
2023-01-03T01:04:28.065Z,12.60
2023-01-03T01:07:00.651Z,12.60
2023-01-03T01:09:35.085Z,12.60
2023-01-03T01:12:02.779Z,12.60
2023-01-03T01:14:33.471Z,12.60
2023-01-03T01:17:03.136Z,12.60
2023-01-03T01:19:36.577Z,12.60
2023-01-03T01:22:03.695Z,12.60
2023-01-03T01:24:30.715Z,12.60
2023-01-03T01:26:57.380Z,12.60
2023-01-03T01:29:24.351Z,12.60
2023-01-03T01:31:51.093Z,12.50
2023-01-03T01:34:18.739Z,12.50
2023-01-03T01:36:46.577Z,12.50
2023-01-03T01:39:31.800Z,12.50
2023-01-03T01:42:22.340Z,12.50
2023-01-03T01:45:02.230Z,12.50
2023-01-03T01:47:40.142Z,12.50
2023-01-03T01:50:47.636Z,12.50
2023-01-03T01:53:24.136Z,12.50
2023-01-03T01:56:13.137Z,12.40
2023-01-03T01:58:45.032Z,12.50
2023-01-03T02:01:14.004Z,12.40
2023-01-03T02:03:44.555Z,12.40
2023-01-03T02:06:14.678Z,12.40
2023-01-03T02:08:41.792Z,12.40
2023-01-03T02:11:30.052Z,12.40
2023-01-03T02:14:28.743Z,12.40
2023-01-03T02:17:29.747Z,12.30
2023-01-03T02:20:29.790Z,12.30
2023-01-03T02:23:11.833Z,12.30
2023-01-03T02:25:56.933Z,12.20
2023-01-03T02:29:06.931Z,12.20
2023-01-03T02:31:58.553Z,12.20
2023-01-03T02:34:54.377Z,12.20
2023-01-03T02:37:47.412Z,12.20
2023-01-03T02:40:36.883Z,12.20
2023-01-03T02:43:38.981Z,12.20
2023-01-03T02:46:24.331Z,12.20
2023-01-03T02:49:16.942Z,12.20
2023-01-03T02:51:54.918Z,12.20
2023-01-03T02:54:28.559Z,12.20
2023-01-03T02:57:00.737Z,12.20
2023-01-03T02:59:43.816Z,12.20
2023-01-03T03:02:12.260Z,12.20
2023-01-03T03:04:40.741Z,12.20
2023-01-03T03:07:17.578Z,12.20
2023-01-03T03:10:02.801Z,12.20
2023-01-03T03:12:50.938Z,12.20
2023-01-03T03:15:22.933Z,12.10
2023-01-03T03:17:53.898Z,12.10
2023-01-03T03:20:39.305Z,12.10
2023-01-03T03:23:35.966Z,12.00
2023-01-03T03:26:17.751Z,12.00
2023-01-03T03:28:48.477Z,12.00
2023-01-03T03:31:27.647Z,12.00
2023-01-03T03:34:01.272Z,12.00
2023-01-03T03:36:27.944Z,12.00
2023-01-03T03:38:54.889Z,11.90
2023-01-03T03:42:01.668Z,11.90
2023-01-03T03:45:01.967Z,11.90
2023-01-03T03:48:05.651Z,11.80
2023-01-03T03:50:51.221Z,11.80
2023-01-03T03:53:23.947Z,11.80
2023-01-03T03:56:02.140Z,11.80
2023-01-03T03:58:40.808Z,11.70
2023-01-03T04:01:09.638Z,11.70
2023-01-03T04:03:39.249Z,11.70
2023-01-03T04:06:10.825Z,11.70
2023-01-03T04:08:37.657Z,11.70
2023-01-03T04:11:07.670Z,11.60
2023-01-03T04:13:37.030Z,11.60
2023-01-03T04:16:04.906Z,11.60
2023-01-03T04:18:31.733Z,11.50
2023-01-03T04:20:58.964Z,11.50
2023-01-03T04:23:25.993Z,11.50
2023-01-03T04:25:52.676Z,11.40
2023-01-03T04:28:19.852Z,11.40
2023-01-03T04:30:47.045Z,11.40
2023-01-03T04:33:13.800Z,11.30
2023-01-03T04:35:40.641Z,11.30
2023-01-03T04:38:08.572Z,11.30
2023-01-03T04:40:36.106Z,11.30
2023-01-03T04:43:21.161Z,11.30
2023-01-03T04:45:51.155Z,11.20
2023-01-03T04:48:18.248Z,11.20
2023-01-03T04:50:55.869Z,11.20
2023-01-03T04:53:24.631Z,11.10
2023-01-03T04:55:53.306Z,11.10
2023-01-03T04:58:20.884Z,11.10
2023-01-03T05:00:47.794Z,11.00
2023-01-03T05:03:14.671Z,11.10
2023-01-03T05:05:44.171Z,11.00
2023-01-03T05:08:13.639Z,11.00
2023-01-03T05:10:41.389Z,11.00
2023-01-03T05:13:08.777Z,11.00
2023-01-03T05:15:38.490Z,10.90
2023-01-03T05:18:05.676Z,10.90
2023-01-03T05:20:53.953Z,10.90
2023-01-03T05:23:39.442Z,10.90
2023-01-03T05:26:13.537Z,10.90
2023-01-03T05:28:41.890Z,10.80
2023-01-03T05:31:08.703Z,10.80
2023-01-03T05:33:39.058Z,10.80
2023-01-03T05:36:06.954Z,10.70
2023-01-03T05:38:33.633Z,10.70
2023-01-03T05:41:00.413Z,10.70
2023-01-03T05:43:27.146Z,10.70
2023-01-03T05:45:54.152Z,10.70
2023-01-03T05:48:21.674Z,10.60
2023-01-03T05:50:50.003Z,10.60
2023-01-03T05:53:16.996Z,10.60
2023-01-03T05:55:43.949Z,10.60
2023-01-03T05:58:12.547Z,10.60
2023-01-03T06:00:39.714Z,10.60
2023-01-03T06:03:06.776Z,10.50
2023-01-03T06:05:33.563Z,10.50
2023-01-03T06:08:02.111Z,10.50
2023-01-03T06:10:29.190Z,10.50
2023-01-03T06:12:55.978Z,10.50
2023-01-03T06:15:22.750Z,10.50
2023-01-03T06:17:57.471Z,10.50
2023-01-03T06:20:28.120Z,10.50
2023-01-03T06:22:55.376Z,10.50
2023-01-03T06:25:23.087Z,10.50
2023-01-03T06:27:49.790Z,10.50
2023-01-03T06:30:16.471Z,10.50
2023-01-03T06:32:44.208Z,10.40
2023-01-03T06:35:11.641Z,10.40
2023-01-03T06:37:38.512Z,10.40
2023-01-03T06:40:06.005Z,10.40
2023-01-03T06:42:40.118Z,10.40
2023-01-03T06:45:25.953Z,10.30
2023-01-03T06:48:11.406Z,10.30
2023-01-03T06:51:01.820Z,10.30
2023-01-03T06:53:34.910Z,10.30
2023-01-03T06:56:02.027Z,10.20
2023-01-03T06:58:29.098Z,10.20
2023-01-03T07:00:57.689Z,10.20
2023-01-03T07:03:24.886Z,10.10
2023-01-03T07:05:51.952Z,10.10
2023-01-03T07:08:18.817Z,10.10
2023-01-03T07:10:45.669Z,10.10
2023-01-03T07:13:30.945Z,10.10
2023-01-03T07:15:57.866Z,10.10
2023-01-03T07:18:26.214Z,10.10
2023-01-03T07:20:53.232Z,10.00
2023-01-03T07:23:20.184Z,10.00
2023-01-03T07:25:47.701Z,9.90
2023-01-03T07:28:15.808Z,10.00
2023-01-03T07:30:44.964Z,9.90
2023-01-03T07:33:14.535Z,9.90
2023-01-03T07:35:41.931Z,9.90
2023-01-03T07:38:09.673Z,9.90
2023-01-03T07:40:36.357Z,9.90
2023-01-03T07:43:21.634Z,9.90
2023-01-03T07:45:48.901Z,9.90
2023-01-03T07:48:15.821Z,9.90
2023-01-03T07:50:42.850Z,9.90
2023-01-03T07:53:10.221Z,9.90
2023-01-03T07:55:37.839Z,9.90
2023-01-03T07:58:04.744Z,9.90
2023-01-03T08:00:31.490Z,9.90
2023-01-03T08:02:58.332Z,10.00
2023-01-03T08:05:25.880Z,10.00
2023-01-03T08:07:53.308Z,10.00
2023-01-03T08:10:39.517Z,10.00
2023-01-03T08:13:18.734Z,10.00
2023-01-03T08:15:51.174Z,10.00
2023-01-03T08:18:21.217Z,10.10
2023-01-03T08:20:48.348Z,10.10
2023-01-03T08:23:15.196Z,10.10
2023-01-03T08:25:41.980Z,10.20
2023-01-03T08:28:10.352Z,10.20
2023-01-03T08:30:42.809Z,10.20
2023-01-03T08:33:12.329Z,10.20
2023-01-03T08:35:41.044Z,10.30
2023-01-03T08:38:15.159Z,10.30
2023-01-03T08:40:43.118Z,10.30
2023-01-03T08:43:12.383Z,10.30
2023-01-03T08:45:39.321Z,10.30
2023-01-03T08:48:08.021Z,10.30
2023-01-03T08:50:35.638Z,10.30
2023-01-03T08:53:02.694Z,10.40
2023-01-03T08:55:29.374Z,10.40
2023-01-03T08:57:56.876Z,10.40
2023-01-03T09:00:23.632Z,10.40
2023-01-03T09:02:50.656Z,10.50
2023-01-03T09:05:17.848Z,10.50
2023-01-03T09:07:44.667Z,10.50
2023-01-03T09:10:11.653Z,10.50
2023-01-03T09:12:38.393Z,10.60
2023-01-03T09:15:05.707Z,10.60
2023-01-03T09:17:32.426Z,10.60
2023-01-03T09:19:59.257Z,10.60
2023-01-03T09:22:26.028Z,10.60
2023-01-03T09:24:52.739Z,10.60
2023-01-03T09:27:19.506Z,10.70
2023-01-03T09:29:46.753Z,10.70
2023-01-03T09:32:13.560Z,10.70
2023-01-03T09:34:40.358Z,10.70
2023-01-03T09:37:07.128Z,10.70
2023-01-03T09:39:33.876Z,10.70
2023-01-03T09:42:19.498Z,10.80
2023-01-03T09:44:46.936Z,10.80
2023-01-03T09:47:23.901Z,10.90
2023-01-03T09:50:26.544Z,10.90
2023-01-03T09:53:02.566Z,11.00
2023-01-03T09:55:51.955Z,11.00
2023-01-03T09:58:37.363Z,11.00
2023-01-03T10:01:31.505Z,11.10
2023-01-03T10:04:33.433Z,11.20
2023-01-03T10:07:28.710Z,11.20
2023-01-03T10:10:21.712Z,11.40
2023-01-03T10:13:25.991Z,11.50
2023-01-03T10:16:24.726Z,11.50
2023-01-03T10:19:11.938Z,11.60
2023-01-03T10:21:57.276Z,11.60
2023-01-03T10:24:28.831Z,11.70
2023-01-03T10:27:17.816Z,11.70
2023-01-03T10:29:46.091Z,11.80
2023-01-03T10:32:59.529Z,11.80
2023-01-03T10:35:30.520Z,11.80
2023-01-03T10:37:58.270Z,11.80
2023-01-03T10:40:42.410Z,11.80
2023-01-03T10:43:10.581Z,11.80
2023-01-03T10:45:52.048Z,11.90
2023-01-03T10:48:18.912Z,11.90
2023-01-03T10:50:46.212Z,12.00
2023-01-03T10:53:15.625Z,12.10
2023-01-03T10:55:48.950Z,12.10
2023-01-03T10:58:34.053Z,12.20
2023-01-03T11:01:24.825Z,12.30
2023-01-03T11:04:18.162Z,12.40
2023-01-03T11:07:01.487Z,12.50
2023-01-03T11:09:35.232Z,12.60
2023-01-03T11:12:17.735Z,12.50
2023-01-03T11:14:52.564Z,12.60
2023-01-03T11:17:21.367Z,12.60
2023-01-03T11:19:49.240Z,12.70
2023-01-03T11:22:37.609Z,12.70
2023-01-03T11:25:23.475Z,12.70
2023-01-03T11:27:58.313Z,12.60
2023-01-03T11:30:39.136Z,12.60
2023-01-03T11:33:21.505Z,12.60
2023-01-03T11:35:55.303Z,12.50
2023-01-03T11:38:58.666Z,12.40
2023-01-03T11:41:52.013Z,12.40
2023-01-03T11:44:36.751Z,12.40
2023-01-03T11:47:29.715Z,12.40
2023-01-03T11:49:56.327Z,12.40
2023-01-03T11:52:29.229Z,12.40
2023-01-03T11:55:05.885Z,12.40
2023-01-03T11:58:06.168Z,12.40
2023-01-03T12:00:52.713Z,12.50
2023-01-03T12:03:43.751Z,12.60
2023-01-03T12:06:31.356Z,12.70
2023-01-03T12:09:25.420Z,12.80
2023-01-03T12:12:27.507Z,13.00
2023-01-03T12:15:22.930Z,13.20
2023-01-03T12:17:49.836Z,13.50
2023-01-03T12:20:37.279Z,13.60
2023-01-03T12:23:16.446Z,13.80
2023-01-03T12:25:48.729Z,14.00
2023-01-03T12:28:39.307Z,14.20
2023-01-03T12:31:42.807Z,14.50
2023-01-03T12:34:39.255Z,14.70
2023-01-03T12:37:16.611Z,15.00
2023-01-03T12:39:56.457Z,15.20
2023-01-03T12:42:57.984Z,15.40
2023-01-03T12:46:12.299Z,15.50
2023-01-03T12:48:54.946Z,15.70
2023-01-03T12:51:24.774Z,15.70
2023-01-03T12:54:12.371Z,15.70
2023-01-03T12:57:08.336Z,15.80
2023-01-03T12:59:56.089Z,15.60
2023-01-03T13:02:41.628Z,15.30
2023-01-03T13:05:14.919Z,15.10
2023-01-03T13:07:48.704Z,14.80
2023-01-03T13:10:19.482Z,14.60
2023-01-03T13:12:52.678Z,14.40
2023-01-03T13:15:29.839Z,14.30
2023-01-03T13:18:21.835Z,14.20
2023-01-03T13:20:54.000Z,14.00
2023-01-03T13:23:41.028Z,13.90
2023-01-03T13:26:28.472Z,13.80
2023-01-03T13:29:47.542Z,13.70
2023-01-03T13:32:16.419Z,13.50
2023-01-03T13:34:43.651Z,13.40
2023-01-03T13:37:16.236Z,13.30
2023-01-03T13:39:54.888Z,13.20
2023-01-03T13:42:37.509Z,13.20
2023-01-03T13:45:30.544Z,13.10
2023-01-03T13:47:58.305Z,13.00
2023-01-03T13:50:29.059Z,12.90
2023-01-03T13:53:10.671Z,12.90
2023-01-03T13:55:58.643Z,12.80
2023-01-03T13:58:27.218Z,12.80
2023-01-03T14:01:05.021Z,12.70
2023-01-03T14:03:50.706Z,12.60
2023-01-03T14:06:38.848Z,12.60
2023-01-03T14:09:30.010Z,12.60
2023-01-03T14:12:25.715Z,12.60
2023-01-03T14:14:57.497Z,12.60
2023-01-03T14:17:31.045Z,12.70
2023-01-03T14:20:04.330Z,12.90
2023-01-03T14:22:44.270Z,13.00
2023-01-03T14:25:41.270Z,13.00
2023-01-03T14:28:27.274Z,13.00
2023-01-03T14:30:59.892Z,13.00
2023-01-03T14:33:45.013Z,13.00
2023-01-03T14:36:16.906Z,12.90
2023-01-03T14:38:52.903Z,12.90
2023-01-03T14:41:34.813Z,12.80
2023-01-03T14:44:16.421Z,12.80
2023-01-03T14:46:53.355Z,12.80
2023-01-03T14:49:32.243Z,12.70
2023-01-03T14:52:05.698Z,12.70
2023-01-03T14:54:33.011Z,12.70
2023-01-03T14:57:01.547Z,12.70
2023-01-03T14:59:28.843Z,12.60
2023-01-03T15:01:55.718Z,12.60
2023-01-03T15:04:24.680Z,12.60
2023-01-03T15:07:04.900Z,12.60
2023-01-03T15:09:36.319Z,12.50
2023-01-03T15:12:04.913Z,12.50
2023-01-03T15:14:34.323Z,12.50
2023-01-03T15:17:05.394Z,12.50
2023-01-03T15:19:33.440Z,12.40
2023-01-03T15:22:17.947Z,12.40
2023-01-03T15:24:47.388Z,12.40
2023-01-03T15:27:33.194Z,12.40
2023-01-03T15:30:14.803Z,12.40
2023-01-03T15:32:51.672Z,12.40
2023-01-03T15:35:39.913Z,12.40
2023-01-03T15:38:28.806Z,12.40
2023-01-03T15:40:55.513Z,12.40
2023-01-03T15:43:27.013Z,12.30
2023-01-03T15:46:14.950Z,12.30
2023-01-03T15:48:47.121Z,12.20
2023-01-03T15:51:13.837Z,12.20
2023-01-03T15:53:44.790Z,12.10
2023-01-03T15:56:24.293Z,12.10
2023-01-03T15:58:54.562Z,12.00
2023-01-03T16:01:22.635Z,12.00
2023-01-03T16:03:50.909Z,11.90
2023-01-03T16:06:18.330Z,11.90
2023-01-03T16:08:45.773Z,11.80
2023-01-03T16:11:28.028Z,11.80
2023-01-03T16:14:05.100Z,11.80
2023-01-03T16:16:40.132Z,11.80
2023-01-03T16:19:07.932Z,11.70
2023-01-03T16:21:34.943Z,11.70
2023-01-03T16:24:02.654Z,11.70
2023-01-03T16:26:29.389Z,11.60
2023-01-03T16:28:56.474Z,11.60
2023-01-03T16:31:31.040Z,11.60
2023-01-03T16:33:57.990Z,11.50
2023-01-03T16:36:31.217Z,11.50
2023-01-03T16:38:58.672Z,11.50
2023-01-03T16:41:25.636Z,11.50
2023-01-03T16:43:53.273Z,11.40
2023-01-03T16:46:25.469Z,11.40
2023-01-03T16:48:54.067Z,11.30
2023-01-03T16:51:24.974Z,11.30
2023-01-03T16:53:53.574Z,11.20
2023-01-03T16:56:20.681Z,11.20
2023-01-03T16:58:47.502Z,11.20
2023-01-03T17:01:14.484Z,11.20
2023-01-03T17:03:42.290Z,11.20
2023-01-03T17:06:38.089Z,11.20
2023-01-03T17:09:19.256Z,11.10
2023-01-03T17:11:46.341Z,11.10
2023-01-03T17:14:20.172Z,11.00
2023-01-03T17:16:47.816Z,11.00
2023-01-03T17:20:02.007Z,10.90
2023-01-03T17:22:18.034Z,10.90
2023-01-03T17:24:45.411Z,10.80
2023-01-03T17:27:31.469Z,10.70
2023-01-03T17:30:06.818Z,10.70
2023-01-03T17:32:34.121Z,10.70
2023-01-03T17:35:03.148Z,10.60
2023-01-03T17:37:29.989Z,10.60
2023-01-03T17:39:59.639Z,10.50
2023-01-03T17:42:29.030Z,10.50
2023-01-03T17:45:14.732Z,10.50
2023-01-03T17:48:02.388Z,10.50
2023-01-03T17:50:31.830Z,10.40
2023-01-03T17:53:01.757Z,10.40
2023-01-03T17:55:30.357Z,10.30
2023-01-03T17:58:00.389Z,10.30
2023-01-03T18:00:28.715Z,10.30
2023-01-03T18:02:56.748Z,10.30
2023-01-03T18:05:28.611Z,10.20
2023-01-03T18:08:01.095Z,10.20
2023-01-03T18:10:32.300Z,10.20
2023-01-03T18:12:59.199Z,10.20
2023-01-03T18:15:26.321Z,10.10
2023-01-03T18:17:53.383Z,10.20
2023-01-03T18:20:20.758Z,10.10
2023-01-03T18:22:48.432Z,10.10
2023-01-03T18:25:23.732Z,10.00
2023-01-03T18:27:54.674Z,10.00
2023-01-03T18:30:21.486Z,10.00
2023-01-03T18:32:48.579Z,10.00
2023-01-03T18:35:22.308Z,10.00
2023-01-03T18:37:54.700Z,9.90
2023-01-03T18:40:27.418Z,9.90
2023-01-03T18:43:09.688Z,9.90
2023-01-03T18:45:38.083Z,9.90
2023-01-03T18:48:05.168Z,9.90
2023-01-03T18:50:32.198Z,9.80
2023-01-03T18:53:04.368Z,9.80
2023-01-03T18:55:33.941Z,9.80
2023-01-03T18:58:25.753Z,9.70
2023-01-03T19:00:52.537Z,9.70
2023-01-03T19:03:24.694Z,9.70
2023-01-03T19:05:54.017Z,9.60
2023-01-03T19:08:24.310Z,9.70
2023-01-03T19:10:52.052Z,9.60
2023-01-03T19:13:28.067Z,9.60
2023-01-03T19:15:55.439Z,9.60
2023-01-03T19:18:22.681Z,9.60
2023-01-03T19:20:50.835Z,9.60
2023-01-03T19:23:25.309Z,9.60
2023-01-03T19:25:52.688Z,9.50
2023-01-03T19:28:23.991Z,9.50
2023-01-03T19:30:51.392Z,9.40
2023-01-03T19:33:19.461Z,9.40
2023-01-03T19:35:46.635Z,9.40
2023-01-03T19:38:13.597Z,9.30
2023-01-03T19:40:42.965Z,9.20
2023-01-03T19:43:21.701Z,9.20
2023-01-03T19:45:49.035Z,9.10
2023-01-03T19:48:19.334Z,9.10
2023-01-03T19:50:46.967Z,9.00
2023-01-03T19:53:14.042Z,9.00
2023-01-03T19:55:44.072Z,9.00
2023-01-03T19:58:37.090Z,9.00
2023-01-03T20:01:04.343Z,9.00
2023-01-03T20:03:42.853Z,9.00
2023-01-03T20:06:15.538Z,9.00
2023-01-03T20:08:42.343Z,9.00
2023-01-03T20:11:27.331Z,9.00
2023-01-03T20:13:54.051Z,9.00
2023-01-03T20:16:23.580Z,8.90
2023-01-03T20:18:50.376Z,8.90
2023-01-03T20:21:22.803Z,8.90
2023-01-03T20:23:56.594Z,8.90
2023-01-03T20:26:24.980Z,8.90
2023-01-03T20:28:53.118Z,8.90
2023-01-03T20:31:20.791Z,8.90
2023-01-03T20:33:48.136Z,8.90
2023-01-03T20:36:23.127Z,8.80
2023-01-03T20:38:55.747Z,8.80
2023-01-03T20:41:36.067Z,8.80
2023-01-03T20:44:07.288Z,8.80
2023-01-03T20:46:34.279Z,8.80
2023-01-03T20:49:03.325Z,8.80
2023-01-03T20:51:30.472Z,8.80
2023-01-03T20:53:57.298Z,8.80
2023-01-03T20:56:26.153Z,8.80
2023-01-03T20:58:52.874Z,8.80
2023-01-03T21:01:19.650Z,8.70
2023-01-03T21:03:46.540Z,8.70
2023-01-03T21:06:22.005Z,8.70
2023-01-03T21:08:55.311Z,8.70
2023-01-03T21:11:29.162Z,8.70
2023-01-03T21:13:57.719Z,8.70
2023-01-03T21:16:43.691Z,8.70
2023-01-03T21:19:22.185Z,8.70
2023-01-03T21:21:51.185Z,8.60
2023-01-03T21:24:20.171Z,8.60
2023-01-03T21:26:46.874Z,8.60
2023-01-03T21:29:13.874Z,8.60
2023-01-03T21:31:42.501Z,8.60
2023-01-03T21:34:27.569Z,8.50
2023-01-03T21:36:54.297Z,8.50
2023-01-03T21:39:21.129Z,8.50
2023-01-03T21:42:06.713Z,8.60
2023-01-03T21:44:33.417Z,8.60
2023-01-03T21:47:00.100Z,8.60
2023-01-03T21:49:26.867Z,8.60
2023-01-03T21:51:53.524Z,8.60
2023-01-03T21:54:20.358Z,8.60
2023-01-03T21:56:47.320Z,8.50
2023-01-03T21:59:15.549Z,8.50
2023-01-03T22:02:02.850Z,8.50
2023-01-03T22:04:30.249Z,8.50
2023-01-03T22:07:00.620Z,8.40
2023-01-03T22:09:48.083Z,8.40
2023-01-03T22:12:16.104Z,8.40
2023-01-03T22:14:44.278Z,8.40
2023-01-03T22:17:11.197Z,8.30
2023-01-03T22:19:37.922Z,8.40
2023-01-03T22:22:04.943Z,8.40
2023-01-03T22:24:31.839Z,8.30
2023-01-03T22:26:58.669Z,8.30
2023-01-03T22:29:25.531Z,8.30
2023-01-03T22:31:52.385Z,8.30
2023-01-03T22:34:19.182Z,8.30
2023-01-03T22:36:45.859Z,8.30
2023-01-03T22:39:12.566Z,8.20
2023-01-03T22:41:39.325Z,8.20
2023-01-03T22:44:06.102Z,8.20
2023-01-03T22:46:33.010Z,8.20
2023-01-03T22:48:59.822Z,8.20
2023-01-03T22:51:26.599Z,8.20
2023-01-03T22:53:53.385Z,8.20
2023-01-03T22:56:20.209Z,8.20
2023-01-03T22:58:46.941Z,8.20
2023-01-03T23:01:16.518Z,8.20
2023-01-03T23:03:44.904Z,8.20
2023-01-03T23:06:17.613Z,8.10
2023-01-03T23:08:44.552Z,8.10
2023-01-03T23:11:35.278Z,8.00
2023-01-03T23:14:09.567Z,8.00
2023-01-03T23:16:36.654Z,8.00
2023-01-03T23:19:05.976Z,8.00
2023-01-03T23:21:34.175Z,7.90
2023-01-03T23:24:01.405Z,7.90
2023-01-03T23:26:28.431Z,7.90
2023-01-03T23:29:02.385Z,7.80
2023-01-03T23:31:29.665Z,7.80
2023-01-03T23:34:00.447Z,7.80
2023-01-03T23:36:28.592Z,7.80
2023-01-03T23:38:56.083Z,7.70
2023-01-03T23:41:23.190Z,7.80
2023-01-03T23:43:50.682Z,7.70
2023-01-03T23:46:20.265Z,7.70
2023-01-03T23:48:47.793Z,7.60
2023-01-03T23:51:14.847Z,7.50
2023-01-03T23:53:43.472Z,7.50
2023-01-03T23:56:16.206Z,7.50
2023-01-03T23:58:43.221Z,7.40
